Time;durP1;ratioP1;P1;durP2;ratioP2;P2;SDS_P1;SDS_P2;PMS_P1;PMS_P2;Temp;Humidity;BMP_temperature;BMP_pressure;BME280_temperature;BME280_humidity;BME280_pressure;Samples;Min_cycle;Max_cycle;Signal;HPM_P1;HPM_P2
2022/11/13 00:01:10;;;;;;;27.33;18.30;;;;;;;;;;5053828;28;20057;-69
2022/11/13 00:03:36;;;;;;;28.40;17.65;;;;;;;;;;5059372;28;20049;-69
2022/11/13 00:06:03;;;;;;;25.00;16.77;;;;;;;;;;5058852;28;20057;-69
2022/11/13 00:08:30;;;;;;;24.42;17.40;;;;;;;;;;5061487;28;20057;-69
2022/11/13 00:11:03;;;;;;;26.90;17.27;;;;;;;;;;5050659;28;20049;-70
2022/11/13 00:13:30;;;;;;;25.95;17.48;;;;;;;;;;5056613;28;20091;-70
2022/11/13 00:15:57;;;;;;;27.30;17.38;;;;;;;;;;5044169;28;20535;-69
2022/11/13 00:18:23;;;;;;;27.10;16.65;;;;;;;;;;5055891;28;20064;-69
2022/11/13 00:20:49;;;;;;;25.42;17.75;;;;;;;;;;5045066;28;20870;-69
2022/11/13 00:23:16;;;;;;;27.40;17.15;;;;;;;;;;5056480;28;20050;-70
2022/11/13 00:25:42;;;;;;;27.25;17.17;;;;;;;;;;5051326;28;20057;-70
2022/11/13 00:28:09;;;;;;;26.10;17.17;;;;;;;;;;5053585;28;20087;-68
2022/11/13 00:30:35;;;;;;;26.70;17.42;;;;;;;;;;5045661;28;20041;-68
2022/11/13 00:33:01;;;;;;;26.95;16.63;;;;;;;;;;5050131;28;20147;-69
2022/11/13 00:35:27;;;;;;;26.02;17.08;;;;;;;;;;5055460;28;20045;-69
2022/11/13 00:37:54;;;;;;;24.08;16.45;;;;;;;;;;5057931;28;20052;-69
2022/11/13 00:40:20;;;;;;;23.88;16.75;;;;;;;;;;5052852;28;20064;-69
2022/11/13 00:42:46;;;;;;;23.30;15.50;;;;;;;;;;5044407;28;20073;-70
2022/11/13 00:45:13;;;;;;;23.35;16.50;;;;;;;;;;5055863;28;20103;-69
2022/11/13 00:47:39;;;;;;;28.58;16.67;;;;;;;;;;5049157;28;20053;-69
2022/11/13 00:50:05;;;;;;;26.27;17.25;;;;;;;;;;5064731;28;20056;-69
2022/11/13 00:52:32;;;;;;;28.55;16.33;;;;;;;;;;5060755;28;20072;-70
2022/11/13 00:54:58;;;;;;;24.30;15.13;;;;;;;;;;5060403;28;20049;-69
2022/11/13 00:57:24;;;;;;;22.58;15.55;;;;;;;;;;5059489;28;20060;-69
2022/11/13 00:59:50;;;;;;;23.15;15.57;;;;;;;;;;5059031;28;20073;-69
2022/11/13 01:02:17;;;;;;;30.08;16.73;;;;;;;;;;5060805;28;20049;-69
2022/11/13 01:04:43;;;;;;;24.33;15.52;;;;;;;;;;5057461;28;20167;-70
2022/11/13 01:07:09;;;;;;;25.50;15.43;;;;;;;;;;5051561;28;20061;-69
2022/11/13 01:09:36;;;;;;;22.88;14.80;;;;;;;;;;5060251;28;20049;-69
2022/11/13 01:12:02;;;;;;;22.73;15.45;;;;;;;;;;5043984;28;20431;-70
2022/11/13 01:14:29;;;;;;;24.95;15.45;;;;;;;;;;5048993;28;20061;-70
2022/11/13 01:16:55;;;;;;;25.10;14.98;;;;;;;;;;5051814;28;20053;-69
2022/11/13 01:19:21;;;;;;;21.70;13.98;;;;;;;;;;5048523;28;20053;-69
2022/11/13 01:21:47;;;;;;;23.25;14.10;;;;;;;;;;5052599;28;20053;-68
2022/11/13 01:24:14;;;;;;;20.90;14.27;;;;;;;;;;5059221;28;20037;-70
2022/11/13 01:26:40;;;;;;;22.98;14.20;;;;;;;;;;5055093;28;20562;-69
2022/11/13 01:29:08;;;;;;;20.85;12.85;;;;;;;;;;5060325;28;20049;-69
2022/11/13 01:31:35;;;;;;;19.77;13.70;;;;;;;;;;5041426;28;20058;-68
2022/11/13 01:34:01;;;;;;;20.70;13.05;;;;;;;;;;5042214;28;20053;-68
2022/11/13 01:36:28;;;;;;;17.70;12.82;;;;;;;;;;5046895;28;20511;-69
2022/11/13 01:38:54;;;;;;;19.50;12.20;;;;;;;;;;5047739;28;20140;-69
2022/11/13 01:41:22;;;;;;;18.55;12.70;;;;;;;;;;5049667;28;20076;-68
2022/11/13 01:43:49;;;;;;;19.92;12.70;;;;;;;;;;5046257;28;20114;-69
2022/11/13 01:46:20;;;;;;;23.25;11.10;;;;;;;;;;5048867;28;20619;-69
2022/11/13 01:48:50;;;;;;;14.18;11.30;;;;;;;;;;5044082;28;20042;-69
2022/11/13 01:51:28;;;;;;;17.33;11.32;;;;;;;;;;5048740;28;20064;-68
2022/11/13 01:53:55;;;;;;;22.45;11.30;;;;;;;;;;5045270;28;20049;-72
2022/11/13 01:56:22;;;;;;;18.00;11.65;;;;;;;;;;5049546;28;20049;-70
2022/11/13 01:59:02;;;;;;;16.35;11.30;;;;;;;;;;5053440;28;20066;-69
2022/11/13 02:01:29;;;;;;;14.93;10.80;;;;;;;;;;5042169;28;20061;-70
2022/11/13 02:03:55;;;;;;;18.13;11.05;;;;;;;;;;5056589;28;20115;-70
2022/11/13 02:06:22;;;;;;;15.88;10.93;;;;;;;;;;5051279;28;20057;-69
2022/11/13 02:08:49;;;;;;;19.75;11.50;;;;;;;;;;5058427;28;20527;-69
2022/11/13 02:11:15;;;;;;;15.93;10.60;;;;;;;;;;5063944;28;20127;-69
2022/11/13 02:13:42;;;;;;;16.55;11.30;;;;;;;;;;5054646;28;20053;-69
2022/11/13 02:16:09;;;;;;;17.35;10.95;;;;;;;;;;5058765;28;20057;-69
2022/11/13 02:18:36;;;;;;;16.52;10.88;;;;;;;;;;5062618;28;20049;-70
2022/11/13 02:21:07;;;;;;;14.23;10.15;;;;;;;;;;5056180;28;20045;-69
2022/11/13 02:23:40;;;;;;;17.15;11.05;;;;;;;;;;5046037;28;20091;-70
2022/11/13 02:26:08;;;;;;;18.02;11.35;;;;;;;;;;5058007;28;20056;-70
2022/11/13 02:28:34;;;;;;;13.77;11.07;;;;;;;;;;5059509;28;20148;-70
2022/11/13 02:31:08;;;;;;;16.50;10.32;;;;;;;;;;5049845;28;20103;-69
2022/11/13 02:33:35;;;;;;;14.77;10.35;;;;;;;;;;5045809;28;20049;-69
2022/11/13 02:36:01;;;;;;;14.70;10.60;;;;;;;;;;5059318;28;20059;-70
2022/11/13 02:38:28;;;;;;;16.80;11.00;;;;;;;;;;5045663;28;20419;-70
2022/11/13 02:40:54;;;;;;;13.57;10.15;;;;;;;;;;5045800;28;20064;-69
2022/11/13 02:43:21;;;;;;;15.45;10.38;;;;;;;;;;5052397;28;20063;-70
2022/11/13 02:45:47;;;;;;;15.13;10.45;;;;;;;;;;5050041;28;20049;-69
2022/11/13 02:48:13;;;;;;;14.00;9.93;;;;;;;;;;5054333;28;20052;-70
2022/11/13 02:50:40;;;;;;;15.30;10.25;;;;;;;;;;5045918;28;20052;-69
2022/11/13 02:53:07;;;;;;;14.63;10.27;;;;;;;;;;5049976;28;20080;-70
2022/11/13 02:55:33;;;;;;;16.52;10.35;;;;;;;;;;5057308;28;20451;-70
2022/11/13 02:57:59;;;;;;;14.80;10.30;;;;;;;;;;5046308;28;20054;-69
2022/11/13 03:00:26;;;;;;;13.20;9.88;;;;;;;;;;5060284;28;20521;-69
2022/11/13 03:02:52;;;;;;;15.00;10.45;;;;;;;;;;5050594;28;20045;-69
2022/11/13 03:05:18;;;;;;;15.60;9.75;;;;;;;;;;5063575;28;20049;-68
2022/11/13 03:07:45;;;;;;;15.93;10.07;;;;;;;;;;5056041;28;20512;-69
2022/11/13 03:10:11;;;;;;;13.77;10.65;;;;;;;;;;5045827;28;20053;-69
2022/11/13 03:12:39;;;;;;;15.63;10.38;;;;;;;;;;5043921;28;20443;-69
2022/11/13 03:15:06;;;;;;;15.57;11.23;;;;;;;;;;5060025;28;20053;-69
2022/11/13 03:17:32;;;;;;;14.13;10.20;;;;;;;;;;5060733;28;20052;-69
2022/11/13 03:19:59;;;;;;;14.68;10.50;;;;;;;;;;5048503;28;20045;-69
2022/11/13 03:22:26;;;;;;;13.82;9.75;;;;;;;;;;5044115;28;20545;-70
2022/11/13 03:24:53;;;;;;;15.80;10.80;;;;;;;;;;5048514;28;20076;-69
2022/11/13 03:27:19;;;;;;;15.10;10.60;;;;;;;;;;5047386;28;20104;-70
2022/11/13 03:29:45;;;;;;;16.58;10.90;;;;;;;;;;5060538;28;20526;-69
2022/11/13 03:32:11;;;;;;;17.00;10.32;;;;;;;;;;5047300;28;20079;-70
2022/11/13 03:34:38;;;;;;;13.68;10.30;;;;;;;;;;5047372;28;20065;-71
2022/11/13 03:37:05;;;;;;;15.60;10.63;;;;;;;;;;5048932;28;20150;-70
2022/11/13 03:39:31;;;;;;;14.40;10.05;;;;;;;;;;5053312;28;20507;-69
2022/11/13 03:41:57;;;;;;;16.05;10.35;;;;;;;;;;5043429;28;20046;-70
2022/11/13 03:44:23;;;;;;;14.05;10.68;;;;;;;;;;5047339;28;20052;-69
2022/11/13 03:46:50;;;;;;;14.65;10.80;;;;;;;;;;5059802;28;20057;-69
2022/11/13 03:49:16;;;;;;;15.48;11.10;;;;;;;;;;5043274;28;20057;-70
2022/11/13 03:51:42;;;;;;;15.48;10.25;;;;;;;;;;5043792;28;20053;-70
2022/11/13 03:54:09;;;;;;;14.85;10.68;;;;;;;;;;5053493;28;20593;-70
2022/11/13 03:56:35;;;;;;;18.45;10.93;;;;;;;;;;5059345;28;20641;-70
2022/11/13 03:59:02;;;;;;;16.27;10.77;;;;;;;;;;5056569;28;20064;-70
2022/11/13 04:01:28;;;;;;;13.95;10.20;;;;;;;;;;5061727;28;20053;-70
2022/11/13 04:03:54;;;;;;;14.40;10.13;;;;;;;;;;5054422;28;20057;-69
2022/11/13 04:06:20;;;;;;;13.57;10.90;;;;;;;;;;5044486;28;20061;-69
2022/11/13 04:08:47;;;;;;;15.93;10.48;;;;;;;;;;5059251;28;20053;-69
2022/11/13 04:11:13;;;;;;;14.32;10.52;;;;;;;;;;5042775;28;20053;-69
2022/11/13 04:13:39;;;;;;;14.57;9.15;;;;;;;;;;5059226;28;20074;-68
2022/11/13 04:16:06;;;;;;;11.88;10.25;;;;;;;;;;5046183;28;20128;-69
2022/11/13 04:18:32;;;;;;;14.77;10.55;;;;;;;;;;5055633;28;20049;-69
2022/11/13 04:20:59;;;;;;;12.65;9.40;;;;;;;;;;5042757;28;20054;-69
2022/11/13 04:23:26;;;;;;;14.82;10.50;;;;;;;;;;5045963;28;20046;-68
2022/11/13 04:25:52;;;;;;;14.43;10.43;;;;;;;;;;5044323;28;20511;-70
2022/11/13 04:28:18;;;;;;;14.30;10.63;;;;;;;;;;5059264;28;20549;-70
2022/11/13 04:30:44;;;;;;;14.95;10.77;;;;;;;;;;5057868;28;20057;-69
2022/11/13 04:33:12;;;;;;;13.13;10.00;;;;;;;;;;5055946;28;20052;-69
2022/11/13 04:35:40;;;;;;;15.13;10.02;;;;;;;;;;5043293;28;20053;-70
2022/11/13 04:38:07;;;;;;;14.55;10.02;;;;;;;;;;5042420;28;20135;-69
2022/11/13 04:40:33;;;;;;;14.60;9.88;;;;;;;;;;5042356;28;20076;-69
2022/11/13 04:42:59;;;;;;;15.45;10.60;;;;;;;;;;5042249;28;20060;-68
2022/11/13 04:45:26;;;;;;;15.30;10.02;;;;;;;;;;5069563;28;20045;-68
2022/11/13 04:47:52;;;;;;;15.48;10.35;;;;;;;;;;5044598;28;20284;-69
2022/11/13 04:50:19;;;;;;;18.15;10.07;;;;;;;;;;5049453;28;20482;-68
2022/11/13 04:52:45;;;;;;;12.95;10.13;;;;;;;;;;5057259;28;20053;-67
2022/11/13 04:55:12;;;;;;;13.93;9.80;;;;;;;;;;5045578;28;20079;-68
2022/11/13 04:57:38;;;;;;;14.40;9.80;;;;;;;;;;5060826;28;20444;-69
2022/11/13 05:00:05;;;;;;;14.05;10.30;;;;;;;;;;5053355;28;20100;-68
2022/11/13 05:02:32;;;;;;;16.35;10.52;;;;;;;;;;5060301;28;20049;-68
2022/11/13 05:04:58;;;;;;;15.45;10.38;;;;;;;;;;5056418;28;20057;-68
2022/11/13 05:07:30;;;;;;;13.07;10.25;;;;;;;;;;5054534;28;20041;-68
2022/11/13 05:09:56;;;;;;;14.68;11.00;;;;;;;;;;5056310;28;20049;-67
2022/11/13 05:12:23;;;;;;;12.70;9.98;;;;;;;;;;5048309;28;20057;-67
2022/11/13 05:14:49;;;;;;;13.50;10.43;;;;;;;;;;5053524;28;20530;-68
2022/11/13 05:17:15;;;;;;;13.10;10.50;;;;;;;;;;5059530;28;20056;-68
2022/11/13 05:19:41;;;;;;;16.55;10.27;;;;;;;;;;5042173;28;20050;-69
2022/11/13 05:22:08;;;;;;;14.40;10.00;;;;;;;;;;5042543;28;20061;-68
2022/11/13 05:24:34;;;;;;;15.38;9.55;;;;;;;;;;5041215;28;20053;-69
2022/11/13 05:27:00;;;;;;;16.98;10.68;;;;;;;;;;5060804;28;20049;-68
2022/11/13 05:29:27;;;;;;;13.55;9.90;;;;;;;;;;5059439;28;20049;-68
2022/11/13 05:31:53;;;;;;;14.82;10.30;;;;;;;;;;5061264;28;20103;-68
2022/11/13 05:34:19;;;;;;;13.90;10.55;;;;;;;;;;5070099;28;20052;-67
2022/11/13 05:36:46;;;;;;;15.65;9.48;;;;;;;;;;5061945;28;20049;-70
2022/11/13 05:39:12;;;;;;;14.30;9.77;;;;;;;;;;5042207;28;20049;-68
2022/11/13 05:41:38;;;;;;;14.38;9.85;;;;;;;;;;5048779;28;20514;-68
2022/11/13 05:44:05;;;;;;;13.15;9.55;;;;;;;;;;5062504;28;20458;-67
2022/11/13 05:46:31;;;;;;;14.90;9.95;;;;;;;;;;5058288;28;20053;-67
2022/11/13 05:49:00;;;;;;;17.67;9.88;;;;;;;;;;5045719;28;20057;-67
2022/11/13 05:51:28;;;;;;;12.57;9.45;;;;;;;;;;5056496;28;20533;-68
2022/11/13 05:53:54;;;;;;;15.00;10.05;;;;;;;;;;5059947;28;20566;-68
2022/11/13 05:56:31;;;;;;;13.98;9.82;;;;;;;;;;5046088;28;20053;-68
2022/11/13 05:58:59;;;;;;;13.15;9.77;;;;;;;;;;5046183;28;20528;-69
2022/11/13 06:01:34;;;;;;;15.73;10.40;;;;;;;;;;5051837;28;20053;-67
2022/11/13 06:04:01;;;;;;;14.50;10.05;;;;;;;;;;5061053;28;20167;-67
2022/11/13 06:06:28;;;;;;;19.38;10.40;;;;;;;;;;5053184;28;20515;-67
2022/11/13 06:08:55;;;;;;;13.50;9.73;;;;;;;;;;5056692;28;20522;-68
2022/11/13 06:11:23;;;;;;;12.93;10.18;;;;;;;;;;5046335;28;20049;-68
2022/11/13 06:13:50;;;;;;;13.15;10.02;;;;;;;;;;5044956;28;20061;-68
2022/11/13 06:16:20;;;;;;;15.48;10.13;;;;;;;;;;5047979;28;20053;-67
2022/11/13 06:18:47;;;;;;;12.75;9.88;;;;;;;;;;5050749;28;20056;-68
2022/11/13 06:21:18;;;;;;;12.45;9.13;;;;;;;;;;5043521;28;20054;-67
2022/11/13 06:23:44;;;;;;;12.88;9.23;;;;;;;;;;5045331;28;20053;-68
2022/11/13 06:26:12;;;;;;;14.88;9.80;;;;;;;;;;5045988;28;20050;-69
2022/11/13 06:28:39;;;;;;;12.40;9.10;;;;;;;;;;5058604;28;20147;-68
2022/11/13 06:31:08;;;;;;;11.63;8.93;;;;;;;;;;5063785;28;20057;-68
2022/11/13 06:33:35;;;;;;;12.57;8.70;;;;;;;;;;5057906;28;20049;-68
2022/11/13 06:36:02;;;;;;;15.57;9.48;;;;;;;;;;5048536;28;20050;-68
2022/11/13 06:38:29;;;;;;;12.57;9.15;;;;;;;;;;5058602;28;20491;-68
2022/11/13 06:40:56;;;;;;;14.52;11.10;;;;;;;;;;5046126;28;20660;-69
2022/11/13 06:43:22;;;;;;;14.68;9.98;;;;;;;;;;5071803;28;20061;-68
2022/11/13 06:45:49;;;;;;;12.80;9.52;;;;;;;;;;5056465;28;20053;-68
2022/11/13 06:48:15;;;;;;;11.70;9.30;;;;;;;;;;5061775;28;20057;-68
2022/11/13 06:50:41;;;;;;;12.70;9.38;;;;;;;;;;5061934;28;20504;-68
2022/11/13 06:53:13;;;;;;;14.82;9.32;;;;;;;;;;5048327;28;20041;-68
2022/11/13 06:55:43;;;;;;;11.85;9.40;;;;;;;;;;5055604;28;20050;-68
2022/11/13 06:58:09;;;;;;;11.43;8.65;;;;;;;;;;5083242;28;20057;-68
2022/11/13 07:00:36;;;;;;;14.27;9.18;;;;;;;;;;5063808;28;20052;-67
2022/11/13 07:03:06;;;;;;;13.50;9.65;;;;;;;;;;5056397;28;20053;-67
2022/11/13 07:05:35;;;;;;;18.25;10.75;;;;;;;;;;5062997;28;20503;-69
2022/11/13 07:08:01;;;;;;;13.80;10.18;;;;;;;;;;5055080;28;20053;-69
2022/11/13 07:10:27;;;;;;;10.88;9.27;;;;;;;;;;5048732;28;20560;-70
2022/11/13 07:12:53;;;;;;;13.20;9.75;;;;;;;;;;5057631;28;20053;-70
2022/11/13 07:15:20;;;;;;;15.75;9.40;;;;;;;;;;5049492;28;20091;-70
2022/11/13 07:17:46;;;;;;;11.38;9.27;;;;;;;;;;5057242;28;20046;-70
2022/11/13 07:20:12;;;;;;;11.65;9.30;;;;;;;;;;5060287;28;20527;-69
2022/11/13 07:22:39;;;;;;;11.20;8.70;;;;;;;;;;5049230;28;20049;-68
2022/11/13 07:25:06;;;;;;;13.23;8.85;;;;;;;;;;5059723;28;20584;-70
2022/11/13 07:27:32;;;;;;;16.83;10.45;;;;;;;;;;5060983;28;20053;-69
2022/11/13 07:29:58;;;;;;;19.23;9.77;;;;;;;;;;5062100;28;20064;-69
2022/11/13 07:32:29;;;;;;;12.38;9.27;;;;;;;;;;5050698;28;20570;-67
2022/11/13 07:34:55;;;;;;;12.18;9.32;;;;;;;;;;5050918;28;20058;-68
2022/11/13 07:37:21;;;;;;;13.70;10.30;;;;;;;;;;5058529;28;20059;-68
2022/11/13 07:39:48;;;;;;;11.85;9.35;;;;;;;;;;5078008;28;20058;-68
2022/11/13 07:42:14;;;;;;;15.48;9.23;;;;;;;;;;5058737;28;20054;-69
2022/11/13 07:44:40;;;;;;;13.20;9.13;;;;;;;;;;5057667;28;20064;-70
2022/11/13 07:47:20;;;;;;;13.40;8.98;;;;;;;;;;5059097;28;20057;-68
2022/11/13 07:49:46;;;;;;;12.95;9.43;;;;;;;;;;5060072;28;20063;-68
2022/11/13 07:52:13;;;;;;;10.35;8.57;;;;;;;;;;5060918;28;20040;-69
2022/11/13 07:54:39;;;;;;;13.15;9.00;;;;;;;;;;5065583;28;20045;-71
2022/11/13 07:57:06;;;;;;;12.45;9.73;;;;;;;;;;5061042;28;20057;-70
2022/11/13 07:59:32;;;;;;;14.23;9.40;;;;;;;;;;5049111;28;20061;-71
2022/11/13 08:01:59;;;;;;;13.70;9.93;;;;;;;;;;5053169;28;20065;-70
2022/11/13 08:04:25;;;;;;;12.15;9.52;;;;;;;;;;5063585;28;20084;-69
2022/11/13 08:06:51;;;;;;;12.65;10.15;;;;;;;;;;5055035;28;20060;-70
2022/11/13 08:09:18;;;;;;;14.07;11.02;;;;;;;;;;5064290;28;20057;-70
2022/11/13 08:11:44;;;;;;;16.05;11.45;;;;;;;;;;5055573;28;20734;-69
2022/11/13 08:14:10;;;;;;;14.48;10.95;;;;;;;;;;5057038;28;20056;-70
2022/11/13 08:16:37;;;;;;;14.07;10.32;;;;;;;;;;5077037;28;20049;-69
2022/11/13 08:19:03;;;;;;;12.88;10.32;;;;;;;;;;5074938;28;20049;-69
2022/11/13 08:21:29;;;;;;;16.35;11.32;;;;;;;;;;5069393;28;20103;-70
2022/11/13 08:23:56;;;;;;;14.70;11.25;;;;;;;;;;5043214;28;20046;-69
2022/11/13 08:26:22;;;;;;;16.00;11.90;;;;;;;;;;5072936;28;20056;-69
2022/11/13 08:28:49;;;;;;;16.77;12.32;;;;;;;;;;5052169;28;20056;-68
2022/11/13 08:31:15;;;;;;;17.75;12.55;;;;;;;;;;5072214;28;20052;-69
2022/11/13 08:33:42;;;;;;;16.20;12.10;;;;;;;;;;5061583;28;20057;-70
2022/11/13 08:36:09;;;;;;;16.90;12.07;;;;;;;;;;5069852;28;20058;-69
2022/11/13 08:38:35;;;;;;;15.40;11.32;;;;;;;;;;5052497;28;20430;-69
2022/11/13 08:41:03;;;;;;;17.17;12.43;;;;;;;;;;5051071;28;20053;-70
2022/11/13 08:43:34;;;;;;;17.05;12.88;;;;;;;;;;5049242;28;20048;-68
2022/11/13 08:46:01;;;;;;;17.85;13.13;;;;;;;;;;5064489;28;21426;-70
2022/11/13 08:48:27;;;;;;;17.30;12.43;;;;;;;;;;5056975;28;20482;-70
2022/11/13 08:50:55;;;;;;;15.32;12.65;;;;;;;;;;5038815;28;20050;-69
2022/11/13 08:53:23;;;;;;;13.15;10.68;;;;;;;;;;5044314;28;20505;-69
2022/11/13 08:55:50;;;;;;;17.13;12.35;;;;;;;;;;5069893;28;20069;-69
2022/11/13 08:58:16;;;;;;;17.30;12.15;;;;;;;;;;5067201;28;20049;-70
2022/11/13 09:00:42;;;;;;;15.40;12.18;;;;;;;;;;5049951;28;20053;-70
2022/11/13 09:03:10;;;;;;;16.30;11.55;;;;;;;;;;5058086;28;20049;-69
2022/11/13 09:05:37;;;;;;;17.90;12.13;;;;;;;;;;5073612;28;20549;-71
2022/11/13 09:08:04;;;;;;;16.90;11.63;;;;;;;;;;5054385;28;20069;-69
2022/11/13 09:10:30;;;;;;;14.45;12.20;;;;;;;;;;5056736;28;20053;-69
2022/11/13 09:12:57;;;;;;;15.98;12.10;;;;;;;;;;5061994;28;20087;-71
2022/11/13 09:15:24;;;;;;;16.17;11.50;;;;;;;;;;5065275;28;20059;-70
2022/11/13 09:17:50;;;;;;;15.90;12.30;;;;;;;;;;5049335;28;20056;-70
2022/11/13 09:20:16;;;;;;;13.73;10.88;;;;;;;;;;5062380;28;20558;-69
2022/11/13 09:22:48;;;;;;;14.68;11.50;;;;;;;;;;5059913;28;20060;-70
2022/11/13 09:25:14;;;;;;;13.57;11.20;;;;;;;;;;5061354;28;20045;-69
2022/11/13 09:27:41;;;;;;;17.83;11.77;;;;;;;;;;5067343;28;20068;-71
2022/11/13 09:30:08;;;;;;;17.13;11.23;;;;;;;;;;5064052;28;20061;-69
2022/11/13 09:32:34;;;;;;;15.48;11.80;;;;;;;;;;5053834;28;20054;-70
2022/11/13 09:35:01;;;;;;;17.45;12.73;;;;;;;;;;5061436;28;20048;-69
2022/11/13 09:37:27;;;;;;;20.27;11.95;;;;;;;;;;5067611;28;20079;-69
2022/11/13 09:39:53;;;;;;;15.05;11.93;;;;;;;;;;5082169;28;20044;-69
2022/11/13 09:42:21;;;;;;;16.50;11.82;;;;;;;;;;5061603;28;20053;-68
2022/11/13 09:44:50;;;;;;;14.52;10.98;;;;;;;;;;5067898;28;20049;-68
2022/11/13 09:47:20;;;;;;;15.02;11.20;;;;;;;;;;5065326;28;20053;-73
2022/11/13 09:49:53;;;;;;;15.70;11.50;;;;;;;;;;5059378;28;20431;-71
2022/11/13 09:52:22;;;;;;;13.13;10.63;;;;;;;;;;5067720;28;20052;-71
2022/11/13 09:54:48;;;;;;;18.98;11.68;;;;;;;;;;5063786;28;20088;-70
2022/11/13 09:57:23;;;;;;;14.52;10.95;;;;;;;;;;5070314;28;20045;-71
2022/11/13 09:59:58;;;;;;;19.50;12.48;;;;;;;;;;5047598;28;20602;-71
2022/11/13 10:02:36;;;;;;;18.02;11.65;;;;;;;;;;5055365;28;20136;-70
2022/11/13 10:05:21;;;;;;;16.58;10.90;;;;;;;;;;5045939;28;20084;-70
2022/11/13 10:08:10;;;;;;;17.05;12.68;;;;;;;;;;5058957;28;20131;-70
2022/11/13 10:10:54;;;;;;;15.93;10.85;;;;;;;;;;5061175;28;20049;-70
2022/11/13 10:13:24;;;;;;;17.00;11.63;;;;;;;;;;5046747;28;20105;-71
2022/11/13 10:15:53;;;;;;;16.30;11.88;;;;;;;;;;5053830;28;20064;-71
2022/11/13 10:18:28;;;;;;;13.68;11.43;;;;;;;;;;5053586;28;20060;-71
2022/11/13 10:21:07;;;;;;;14.20;11.00;;;;;;;;;;5061445;28;20049;-72
2022/11/13 10:23:36;;;;;;;14.68;11.07;;;;;;;;;;5056164;28;20061;-71
2022/11/13 10:26:16;;;;;;;15.70;10.25;;;;;;;;;;5062511;28;20045;-70
2022/11/13 10:28:43;;;;;;;20.48;11.90;;;;;;;;;;5069470;28;20294;-71
2022/11/13 10:31:16;;;;;;;16.00;11.32;;;;;;;;;;5062246;28;20111;-72
2022/11/13 10:33:43;;;;;;;13.65;9.93;;;;;;;;;;5066124;28;20053;-69
2022/11/13 10:36:13;;;;;;;14.05;10.05;;;;;;;;;;5065300;28;20056;-73
2022/11/13 10:38:48;;;;;;;15.82;10.40;;;;;;;;;;5064497;28;20057;-70
2022/11/13 10:41:16;;;;;;;13.82;10.10;;;;;;;;;;5064800;28;20549;-71
2022/11/13 10:43:58;;;;;;;18.60;9.93;;;;;;;;;;5062485;28;20053;-70
2022/11/13 10:46:25;;;;;;;18.67;9.50;;;;;;;;;;5061677;28;20538;-70
2022/11/13 10:48:52;;;;;;;13.05;9.25;;;;;;;;;;5064168;28;20513;-72
2022/11/13 10:51:25;;;;;;;13.93;8.93;;;;;;;;;;5075327;28;20507;-70
2022/11/13 10:53:53;;;;;;;13.48;8.88;;;;;;;;;;5068265;28;20383;-71
2022/11/13 10:56:27;;;;;;;13.30;8.85;;;;;;;;;;5070908;28;20102;-73
2022/11/13 10:58:59;;;;;;;11.25;8.15;;;;;;;;;;5043995;28;20585;-70
2022/11/13 11:01:25;;;;;;;14.35;8.20;;;;;;;;;;5066160;28;20050;-71
2022/11/13 11:03:52;;;;;;;11.90;8.82;;;;;;;;;;5061956;28;20056;-71
2022/11/13 11:06:18;;;;;;;10.38;8.13;;;;;;;;;;5080802;28;20060;-70
2022/11/13 11:08:44;;;;;;;10.07;7.90;;;;;;;;;;5076576;28;20056;-71
2022/11/13 11:14:23;;;;;;;12.00;8.00;;;;;;;;;;5055656;28;20053;-72
2022/11/13 11:16:51;;;;;;;9.75;8.00;;;;;;;;;;5059750;28;20055;-73
2022/11/13 11:19:21;;;;;;;10.85;7.78;;;;;;;;;;5076291;28;20095;-71
2022/11/13 11:21:49;;;;;;;10.80;7.25;;;;;;;;;;5070921;28;20081;-72
2022/11/13 11:24:27;;;;;;;10.35;7.35;;;;;;;;;;5076592;28;20049;-71
2022/11/13 11:26:57;;;;;;;12.05;6.70;;;;;;;;;;5079230;28;20053;-73
2022/11/13 11:29:27;;;;;;;13.35;7.70;;;;;;;;;;5065127;28;20060;-73
2022/11/13 11:32:04;;;;;;;9.43;7.13;;;;;;;;;;5049876;28;20060;-72
2022/11/13 11:34:32;;;;;;;9.63;6.50;;;;;;;;;;5054055;28;20045;-71
2022/11/13 11:37:11;;;;;;;9.43;6.45;;;;;;;;;;5059010;28;20049;-69
2022/11/13 11:39:41;;;;;;;9.73;5.55;;;;;;;;;;5061336;28;20049;-70
2022/11/13 11:42:26;;;;;;;9.00;6.13;;;;;;;;;;5063811;28;20053;-70
2022/11/13 11:44:56;;;;;;;8.18;6.20;;;;;;;;;;5063135;28;20059;-71
2022/11/13 11:47:22;;;;;;;10.75;6.65;;;;;;;;;;5062037;28;20817;-72
2022/11/13 11:49:49;;;;;;;9.75;6.90;;;;;;;;;;5058607;28;20045;-70
2022/11/13 11:52:34;;;;;;;9.80;6.75;;;;;;;;;;5059467;28;20499;-71
2022/11/13 11:55:12;;;;;;;12.63;6.95;;;;;;;;;;5055822;28;20668;-70
2022/11/13 11:57:45;;;;;;;10.65;6.15;;;;;;;;;;5075337;28;20500;-70
2022/11/13 12:00:12;;;;;;;12.38;5.82;;;;;;;;;;5058565;28;20048;-72
2022/11/13 12:02:53;;;;;;;8.43;5.97;;;;;;;;;;5064439;28;20044;-71
2022/11/13 12:05:19;;;;;;;11.57;6.07;;;;;;;;;;5061886;28;20053;-70
2022/11/13 12:07:53;;;;;;;9.82;6.32;;;;;;;;;;5053784;28;20053;-70
2022/11/13 12:10:31;;;;;;;10.35;6.57;;;;;;;;;;5056539;28;20041;-70
2022/11/13 12:13:05;;;;;;;9.70;6.78;;;;;;;;;;5048161;28;20049;-70
2022/11/13 12:15:35;;;;;;;8.85;7.00;;;;;;;;;;5062130;28;20890;-70
2022/11/13 12:18:22;;;;;;;7.55;5.85;;;;;;;;;;5061488;28;20060;-71
2022/11/13 12:20:52;;;;;;;10.32;5.45;;;;;;;;;;5058489;28;20045;-70
2022/11/13 12:23:21;;;;;;;7.07;5.45;;;;;;;;;;5059227;28;20052;-70
2022/11/13 12:25:54;;;;;;;7.32;5.45;;;;;;;;;;5060951;28;20136;-72
2022/11/13 12:28:28;;;;;;;8.27;5.13;;;;;;;;;;5059815;28;20083;-72
2022/11/13 12:31:01;;;;;;;9.43;5.18;;;;;;;;;;5062933;28;20052;-70
2022/11/13 12:33:27;;;;;;;7.13;5.15;;;;;;;;;;5062610;28;20175;-71
2022/11/13 12:35:54;;;;;;;10.40;5.28;;;;;;;;;;5051695;28;20053;-71
2022/11/13 12:38:55;;;;;;;12.15;5.20;;;;;;;;;;5062223;28;20504;-71
2022/11/13 12:41:31;;;;;;;9.18;6.10;;;;;;;;;;4991410;28;20046;-71
2022/11/13 12:44:16;;;;;;;9.50;5.10;;;;;;;;;;4990525;28;20042;-72
2022/11/13 12:46:42;;;;;;;8.77;5.70;;;;;;;;;;4989966;28;20574;-72
2022/11/13 12:49:24;;;;;;;12.63;5.45;;;;;;;;;;4993768;28;20225;-72
2022/11/13 12:51:54;;;;;;;9.27;5.22;;;;;;;;;;4999203;28;20057;-72
2022/11/13 12:54:26;;;;;;;7.55;4.57;;;;;;;;;;4998771;28;21125;-72
2022/11/13 12:57:03;;;;;;;9.10;5.00;;;;;;;;;;4999681;28;20051;-72
2022/11/13 12:59:31;;;;;;;6.50;4.53;;;;;;;;;;5000110;28;20058;-73
2022/11/13 13:02:07;;;;;;;8.68;4.78;;;;;;;;;;4997884;28;20050;-72
2022/11/13 13:04:36;;;;;;;6.70;4.10;;;;;;;;;;4999963;28;20053;-72
2022/11/13 13:07:09;;;;;;;6.70;4.45;;;;;;;;;;4999411;28;20457;-72
2022/11/13 13:09:43;;;;;;;5.80;4.00;;;;;;;;;;5000261;28;20058;-72
2022/11/13 13:12:12;;;;;;;7.50;4.28;;;;;;;;;;5000114;28;20043;-73
2022/11/13 13:14:42;;;;;;;5.97;4.60;;;;;;;;;;5002859;28;20065;-73
2022/11/13 13:17:16;;;;;;;8.05;4.05;;;;;;;;;;5049256;28;20058;-73
2022/11/13 13:19:42;;;;;;;7.40;4.13;;;;;;;;;;5045009;28;20053;-72
2022/11/13 13:22:10;;;;;;;5.53;3.45;;;;;;;;;;5047192;28;20053;-73
2022/11/13 13:24:37;;;;;;;7.55;4.15;;;;;;;;;;5072443;28;20049;-74
2022/11/13 13:27:22;;;;;;;7.95;4.15;;;;;;;;;;5053233;28;20084;-73
2022/11/13 13:29:48;;;;;;;7.05;3.72;;;;;;;;;;5056633;28;20056;-71
2022/11/13 13:32:34;;;;;;;5.13;3.05;;;;;;;;;;5058308;28;20056;-72
2022/11/13 13:35:01;;;;;;;;;;;;;;;;;;5042506;28;20061;-72
2022/11/13 13:37:45;;;;;;;2.97;2.63;;;;;;;;;;5051221;28;45957;-72
2022/11/13 13:40:21;;;;;;;5.35;2.63;;;;;;;;;;5058635;28;20048;-74
2022/11/13 13:42:47;;;;;;;;;;;;;;;;;;5063314;28;20068;-70
2022/11/13 13:45:20;;;;;;;4.47;3.00;;;;;;;;;;5056202;28;44447;-71
2022/11/13 13:47:52;;;;;;;4.03;2.28;;;;;;;;;;5052024;28;20075;-71
2022/11/13 13:50:20;;;;;;;6.32;2.40;;;;;;;;;;5061734;28;20431;-73
2022/11/13 13:52:47;;;;;;;2.92;2.28;;;;;;;;;;5054155;28;20064;-72
2022/11/13 13:55:41;;;;;;;6.32;2.28;;;;;;;;;;5051246;28;20057;-72
2022/11/13 13:58:10;;;;;;;3.55;1.98;;;;;;;;;;5053155;28;20057;-70
2022/11/13 14:00:37;;;;;;;3.83;2.38;;;;;;;;;;5062554;28;20049;-70
2022/11/13 14:03:24;;;;;;;3.33;2.28;;;;;;;;;;5066045;28;20491;-72
2022/11/13 14:05:51;;;;;;;4.55;2.15;;;;;;;;;;5065116;28;20053;-71
2022/11/13 14:08:18;;;;;;;4.63;2.58;;;;;;;;;;5066757;28;20572;-70
2022/11/13 14:10:45;;;;;;;2.75;2.03;;;;;;;;;;5064771;28;20053;-70
2022/11/13 14:13:13;;;;;;;5.28;2.45;;;;;;;;;;5065879;28;20545;-69
2022/11/13 14:15:39;;;;;;;2.90;2.00;;;;;;;;;;5045954;28;20053;-70
2022/11/13 14:18:13;;;;;;;4.22;2.10;;;;;;;;;;5059934;28;20084;-70
2022/11/13 14:20:40;;;;;;;4.68;2.30;;;;;;;;;;5074788;28;20130;-71
2022/11/13 14:23:09;;;;;;;2.90;2.08;;;;;;;;;;5081354;28;20052;-69
2022/11/13 14:25:35;;;;;;;4.32;2.25;;;;;;;;;;5085960;28;20049;-71
2022/11/13 14:28:01;;;;;;;4.35;1.98;;;;;;;;;;5078548;28;20060;-70
2022/11/13 14:30:29;;;;;;;3.22;1.88;;;;;;;;;;5065314;28;20049;-70
2022/11/13 14:32:56;;;;;;;2.42;2.10;;;;;;;;;;5066045;28;20534;-70
2022/11/13 14:35:24;;;;;;;3.42;2.40;;;;;;;;;;5065323;28;20480;-70
2022/11/13 14:37:51;;;;;;;3.15;2.00;;;;;;;;;;5063720;28;20052;-70